sensor_id;sensor_type;location;lat;lon;timestamp;pressure;altitude;pressure_sealevel;temperature;humidity
63088;BME280;49173;43.164;27.786;2022-12-07T00:01:15;100659.13;;;7.28;100.00
63088;BME280;49173;43.164;27.786;2022-12-07T00:03:43;100661.75;;;7.29;100.00
63088;BME280;49173;43.164;27.786;2022-12-07T00:06:11;100659.13;;;7.28;100.00
63088;BME280;49173;43.164;27.786;2022-12-07T00:08:37;100662.75;;;7.25;100.00
63088;BME280;49173;43.164;27.786;2022-12-07T00:11:11;100667.19;;;7.26;100.00
63088;BME280;49173;43.164;27.786;2022-12-07T00:13:38;100669.97;;;7.23;100.00
63088;BME280;49173;43.164;27.786;2022-12-07T00:16:12;100669.03;;;7.24;100.00
63088;BME280;49173;43.164;27.786;2022-12-07T00:18:38;100678.78;;;7.25;100.00
63088;BME280;49173;43.164;27.786;2022-12-07T00:21:10;100676.22;;;7.22;100.00
63088;BME280;49173;43.164;27.786;2022-12-07T00:23:37;100675.38;;;7.22;100.00
63088;BME280;49173;43.164;27.786;2022-12-07T00:26:11;100670.97;;;7.21;100.00
63088;BME280;49173;43.164;27.786;2022-12-07T00:28:37;100682.72;;;7.15;100.00
63088;BME280;49173;43.164;27.786;2022-12-07T00:31:08;100690.72;;;7.15;100.00
63088;BME280;49173;43.164;27.786;2022-12-07T00:33:35;100682.72;;;7.15;100.00
63088;BME280;49173;43.164;27.786;2022-12-07T00:36:03;100680.84;;;7.17;100.00
63088;BME280;49173;43.164;27.786;2022-12-07T00:38:32;100679.03;;;7.19;100.00
63088;BME280;49173;43.164;27.786;2022-12-07T00:41:00;100679.06;;;7.18;100.00
63088;BME280;49173;43.164;27.786;2022-12-07T00:43:27;100685.25;;;7.18;100.00
63088;BME280;49173;43.164;27.786;2022-12-07T00:45:53;100679.13;;;7.16;99.94
63088;BME280;49173;43.164;27.786;2022-12-07T00:48:20;100680.06;;;7.15;99.80
63088;BME280;49173;43.164;27.786;2022-12-07T00:50:46;100681.13;;;7.09;99.99
63088;BME280;49173;43.164;27.786;2022-12-07T00:53:12;100683.81;;;7.09;99.87
63088;BME280;49173;43.164;27.786;2022-12-07T00:55:38;100682.19;;;7.05;99.94
63088;BME280;49173;43.164;27.786;2022-12-07T00:58:04;100672.47;;;7.03;100.00
63088;BME280;49173;43.164;27.786;2022-12-07T01:00:30;100679.59;;;7.02;100.00
63088;BME280;49173;43.164;27.786;2022-12-07T01:02:56;100670.66;;;7.05;100.00
63088;BME280;49173;43.164;27.786;2022-12-07T01:05:22;100671.44;;;7.07;100.00
63088;BME280;49173;43.164;27.786;2022-12-07T01:07:48;100667.13;;;7.03;99.99
63088;BME280;49173;43.164;27.786;2022-12-07T01:10:14;100658.31;;;7.01;100.00
63088;BME280;49173;43.164;27.786;2022-12-07T01:12:40;100658.19;;;7.04;100.00
63088;BME280;49173;43.164;27.786;2022-12-07T01:15:08;100658.25;;;7.02;100.00
63088;BME280;49173;43.164;27.786;2022-12-07T01:17:34;100656.47;;;7.03;100.00
63088;BME280;49173;43.164;27.786;2022-12-07T01:20:01;100645.91;;;7.00;100.00
63088;BME280;49173;43.164;27.786;2022-12-07T01:22:26;100644.25;;;6.96;100.00
63088;BME280;49173;43.164;27.786;2022-12-07T01:24:52;100640.63;;;6.98;100.00
63088;BME280;49173;43.164;27.786;2022-12-07T01:27:18;100637.03;;;6.99;100.00
63088;BME280;49173;43.164;27.786;2022-12-07T01:29:44;100644.06;;;7.02;100.00
63088;BME280;49173;43.164;27.786;2022-12-07T01:32:10;100630.72;;;7.02;100.00
63088;BME280;49173;43.164;27.786;2022-12-07T01:34:35;100634.38;;;6.99;100.00
63088;BME280;49173;43.164;27.786;2022-12-07T01:37:02;100629.91;;;7.00;100.00
63088;BME280;49173;43.164;27.786;2022-12-07T01:39:28;100625.50;;;6.99;100.00
63088;BME280;49173;43.164;27.786;2022-12-07T01:41:54;100623.69;;;6.99;100.00
63088;BME280;49173;43.164;27.786;2022-12-07T01:47:27;100618.44;;;6.96;100.00
63088;BME280;49173;43.164;27.786;2022-12-07T01:49:53;100611.31;;;6.97;100.00
63088;BME280;49173;43.164;27.786;2022-12-07T01:52:26;100613.88;;;7.00;100.00
63088;BME280;49173;43.164;27.786;2022-12-07T01:54:58;100614.69;;;7.02;100.00
63088;BME280;49173;43.164;27.786;2022-12-07T01:57:25;100609.34;;;7.02;100.00
63088;BME280;49173;43.164;27.786;2022-12-07T01:59:52;100604.88;;;7.02;100.00
63088;BME280;49173;43.164;27.786;2022-12-07T02:02:31;100598.75;;;7.00;100.00
63088;BME280;49173;43.164;27.786;2022-12-07T02:05:00;100594.41;;;6.98;100.00
63088;BME280;49173;43.164;27.786;2022-12-07T02:07:27;100601.47;;;6.99;100.00
63088;BME280;49173;43.164;27.786;2022-12-07T02:09:54;100599.63;;;7.01;100.00
63088;BME280;49173;43.164;27.786;2022-12-07T02:12:21;100601.41;;;7.00;100.00
63088;BME280;49173;43.164;27.786;2022-12-07T02:14:48;100604.94;;;7.01;100.00
63088;BME280;49173;43.164;27.786;2022-12-07T02:17:34;100603.09;;;7.03;100.00
63088;BME280;49173;43.164;27.786;2022-12-07T02:20:33;100609.47;;;6.99;100.00
63088;BME280;49173;43.164;27.786;2022-12-07T02:31:23;100597.06;;;6.98;100.00
63088;BME280;49173;43.164;27.786;2022-12-07T02:34:08;100603.31;;;6.97;100.00
63088;BME280;49173;43.164;27.786;2022-12-07T02:36:42;100605.09;;;6.98;100.00
63088;BME280;49173;43.164;27.786;2022-12-07T02:39:19;100602.56;;;6.93;100.00
63088;BME280;49173;43.164;27.786;2022-12-07T02:41:51;100600.81;;;6.92;100.00
63088;BME280;49173;43.164;27.786;2022-12-07T02:44:21;100612.38;;;6.93;100.00
63088;BME280;49173;43.164;27.786;2022-12-07T02:46:54;100602.66;;;6.90;99.83
63088;BME280;49173;43.164;27.786;2022-12-07T02:49:22;100599.13;;;6.89;99.30
63088;BME280;49173;43.164;27.786;2022-12-07T02:51:50;100601.91;;;6.86;98.93
63088;BME280;49173;43.164;27.786;2022-12-07T02:54:18;100599.34;;;6.83;98.32
63088;BME280;49173;43.164;27.786;2022-12-07T02:56:49;100596.91;;;6.77;97.61
63088;BME280;49173;43.164;27.786;2022-12-07T03:02:36;100592.81;;;6.67;97.12
63088;BME280;49173;43.164;27.786;2022-12-07T03:10:54;100590.38;;;6.61;97.83
63088;BME280;49173;43.164;27.786;2022-12-07T03:13:28;100587.66;;;6.63;97.84
63088;BME280;49173;43.164;27.786;2022-12-07T03:18:38;100586.75;;;6.62;98.18
63088;BME280;49173;43.164;27.786;2022-12-07T03:21:12;100584.16;;;6.60;98.26
63088;BME280;49173;43.164;27.786;2022-12-07T03:23:42;100589.50;;;6.60;98.64
63088;BME280;49173;43.164;27.786;2022-12-07T03:26:13;100603.81;;;6.58;98.64
63088;BME280;49173;43.164;27.786;2022-12-07T03:28:45;100605.56;;;6.59;98.79
63088;BME280;49173;43.164;27.786;2022-12-07T03:31:34;100599.41;;;6.57;98.66
63088;BME280;49173;43.164;27.786;2022-12-07T03:34:11;100601.16;;;6.58;98.65
63088;BME280;49173;43.164;27.786;2022-12-07T03:36:47;100599.41;;;6.57;98.87
63088;BME280;49173;43.164;27.786;2022-12-07T03:42:00;100582.53;;;6.56;98.29
63088;BME280;49173;43.164;27.786;2022-12-07T03:44:28;100595.03;;;6.54;98.20
63088;BME280;49173;43.164;27.786;2022-12-07T03:49:43;100598.63;;;6.53;98.42
63088;BME280;49173;43.164;27.786;2022-12-07T03:54:57;100597.69;;;6.54;98.49
63088;BME280;49173;43.164;27.786;2022-12-07T03:57:27;100599.50;;;6.54;98.45
63088;BME280;49173;43.164;27.786;2022-12-07T03:59:55;100596.94;;;6.51;98.43
63088;BME280;49173;43.164;27.786;2022-12-07T04:02:25;100600.56;;;6.50;98.14
63088;BME280;49173;43.164;27.786;2022-12-07T04:04:52;100592.56;;;6.50;98.04
63088;BME280;49173;43.164;27.786;2022-12-07T04:07:17;100588.16;;;6.47;97.92
63088;BME280;49173;43.164;27.786;2022-12-07T04:09:43;100586.63;;;6.40;98.40
63088;BME280;49173;43.164;27.786;2022-12-07T04:12:09;100594.63;;;6.42;98.54
63088;BME280;49173;43.164;27.786;2022-12-07T04:14:35;100589.28;;;6.42;98.56
63088;BME280;49173;43.164;27.786;2022-12-07T04:17:03;100584.81;;;6.42;98.70
63088;BME280;49173;43.164;27.786;2022-12-07T04:19:31;100582.97;;;6.44;98.78
63088;BME280;49173;43.164;27.786;2022-12-07T04:22:00;100575.94;;;6.42;98.65
63088;BME280;49173;43.164;27.786;2022-12-07T04:24:26;100571.56;;;6.39;98.66
63088;BME280;49173;43.164;27.786;2022-12-07T04:26:52;100569.91;;;6.37;98.96
63088;BME280;49173;43.164;27.786;2022-12-07T04:29:19;100569.78;;;6.40;98.77
63088;BME280;49173;43.164;27.786;2022-12-07T04:31:45;100573.31;;;6.40;98.67
63088;BME280;49173;43.164;27.786;2022-12-07T04:34:12;100562.63;;;6.42;98.95
63088;BME280;49173;43.164;27.786;2022-12-07T04:36:38;100560.84;;;6.41;98.45
63088;BME280;49173;43.164;27.786;2022-12-07T04:39:06;100566.19;;;6.41;98.41
63088;BME280;49173;43.164;27.786;2022-12-07T04:41:32;100572.38;;;6.41;97.92
63088;BME280;49173;43.164;27.786;2022-12-07T04:44:03;100577.72;;;6.41;98.24
63088;BME280;49173;43.164;27.786;2022-12-07T04:46:31;100583.06;;;6.41;98.24
63088;BME280;49173;43.164;27.786;2022-12-07T04:48:57;100589.28;;;6.42;98.07
63088;BME280;49173;43.164;27.786;2022-12-07T04:51:25;100591.03;;;6.43;98.32
63088;BME280;49173;43.164;27.786;2022-12-07T04:53:52;100586.63;;;6.42;98.35
63088;BME280;49173;43.164;27.786;2022-12-07T04:56:18;100583.09;;;6.40;98.51
63088;BME280;49173;43.164;27.786;2022-12-07T04:58:45;100586.69;;;6.39;98.62
63088;BME280;49173;43.164;27.786;2022-12-07T05:01:13;100584.97;;;6.38;98.85
63088;BME280;49173;43.164;27.786;2022-12-07T05:03:39;100585.78;;;6.40;99.04
63088;BME280;49173;43.164;27.786;2022-12-07T05:06:05;100582.19;;;6.41;98.61
63088;BME280;49173;43.164;27.786;2022-12-07T05:08:35;100596.38;;;6.41;98.64
63088;BME280;49173;43.164;27.786;2022-12-07T05:11:02;100588.38;;;6.41;98.58
63088;BME280;49173;43.164;27.786;2022-12-07T05:13:28;100595.56;;;6.39;98.17
63088;BME280;49173;43.164;27.786;2022-12-07T05:15:54;100602.84;;;6.34;98.26
63088;BME280;49173;43.164;27.786;2022-12-07T05:18:20;100599.38;;;6.32;98.20
63088;BME280;49173;43.164;27.786;2022-12-07T05:20:46;100598.63;;;6.28;98.27
63088;BME280;49173;43.164;27.786;2022-12-07T05:23:12;100594.25;;;6.26;98.14
63088;BME280;49173;43.164;27.786;2022-12-07T05:25:38;100598.63;;;6.28;98.37
63088;BME280;49173;43.164;27.786;2022-12-07T05:28:04;100603.94;;;6.28;98.23
63088;BME280;49173;43.164;27.786;2022-12-07T05:30:30;100601.28;;;6.28;97.94
63088;BME280;49173;43.164;27.786;2022-12-07T05:32:57;100603.09;;;6.26;98.39
63088;BME280;49173;43.164;27.786;2022-12-07T05:35:23;100593.31;;;6.27;98.33
63088;BME280;49173;43.164;27.786;2022-12-07T05:37:59;100601.38;;;6.25;98.49
63088;BME280;49173;43.164;27.786;2022-12-07T05:40:25;100598.63;;;6.27;98.27
63088;BME280;49173;43.164;27.786;2022-12-07T05:42:51;100595.94;;;6.28;98.13
63088;BME280;49173;43.164;27.786;2022-12-07T05:45:16;100593.31;;;6.27;97.89
63088;BME280;49173;43.164;27.786;2022-12-07T05:47:42;100597.81;;;6.25;97.76
63088;BME280;49173;43.164;27.786;2022-12-07T05:50:08;100589.91;;;6.23;97.95
63088;BME280;49173;43.164;27.786;2022-12-07T05:52:34;100589.78;;;6.26;97.80
63088;BME280;49173;43.164;27.786;2022-12-07T05:55:00;100594.22;;;6.27;97.80
63088;BME280;49173;43.164;27.786;2022-12-07T05:57:26;100587.09;;;6.28;98.02
63088;BME280;49173;43.164;27.786;2022-12-07T05:59:52;100585.22;;;6.30;97.94
63088;BME280;49173;43.164;27.786;2022-12-07T06:02:17;100582.50;;;6.31;98.13
63088;BME280;49173;43.164;27.786;2022-12-07T06:04:45;100581.78;;;6.26;98.59
63088;BME280;49173;43.164;27.786;2022-12-07T06:07:14;100585.22;;;6.30;98.89
63088;BME280;49173;43.164;27.786;2022-12-07T06:09:40;100592.25;;;6.32;98.58
63088;BME280;49173;43.164;27.786;2022-12-07T06:12:08;100585.94;;;6.35;98.50
63088;BME280;49173;43.164;27.786;2022-12-07T06:14:53;100586.81;;;6.36;98.43
63088;BME280;49173;43.164;27.786;2022-12-07T06:17:19;100588.63;;;6.35;98.60
63088;BME280;49173;43.164;27.786;2022-12-07T06:19:45;100598.34;;;6.36;98.31
63088;BME280;49173;43.164;27.786;2022-12-07T06:22:11;100592.19;;;6.34;98.22
63088;BME280;49173;43.164;27.786;2022-12-07T06:24:38;100586.84;;;6.34;98.23
63088;BME280;49173;43.164;27.786;2022-12-07T06:27:04;100593.03;;;6.36;98.13
63088;BME280;49173;43.164;27.786;2022-12-07T06:29:30;100593.81;;;6.38;98.37
63088;BME280;49173;43.164;27.786;2022-12-07T06:31:56;100600.03;;;6.39;98.10
63088;BME280;49173;43.164;27.786;2022-12-07T06:34:23;100595.50;;;6.41;98.13
63088;BME280;49173;43.164;27.786;2022-12-07T06:36:50;100590.97;;;6.44;98.11
63088;BME280;49173;43.164;27.786;2022-12-07T06:39:27;100598.81;;;6.49;98.07
63088;BME280;49173;43.164;27.786;2022-12-07T06:41:54;100593.47;;;6.49;97.98
63088;BME280;49173;43.164;27.786;2022-12-07T06:44:20;100598.75;;;6.50;98.21
63088;BME280;49173;43.164;27.786;2022-12-07T06:46:48;100596.03;;;6.52;98.77
63088;BME280;49173;43.164;27.786;2022-12-07T06:49:14;100597.69;;;6.56;98.70
63088;BME280;49173;43.164;27.786;2022-12-07T06:51:40;100602.03;;;6.58;98.83
63088;BME280;49173;43.164;27.786;2022-12-07T06:54:10;100602.75;;;6.64;99.08
63088;BME280;49173;43.164;27.786;2022-12-07T06:56:37;100603.47;;;6.67;99.30
63088;BME280;49173;43.164;27.786;2022-12-07T06:59:04;100601.53;;;6.72;99.65
63088;BME280;49173;43.164;27.786;2022-12-07T07:01:30;100599.63;;;6.76;99.73
63088;BME280;49173;43.164;27.786;2022-12-07T07:03:56;100591.53;;;6.79;99.99
63088;BME280;49173;43.164;27.786;2022-12-07T07:06:26;100609.03;;;6.86;100.00
63088;BME280;49173;43.164;27.786;2022-12-07T07:08:51;100599.97;;;6.92;100.00
63088;BME280;49173;43.164;27.786;2022-12-07T07:11:18;100605.09;;;6.98;100.00
63088;BME280;49173;43.164;27.786;2022-12-07T07:13:44;100609.28;;;7.03;100.00
63088;BME280;49173;43.164;27.786;2022-12-07T07:16:12;100602.88;;;7.09;100.00
63088;BME280;49173;43.164;27.786;2022-12-07T07:18:38;100615.00;;;7.18;100.00
63088;BME280;49173;43.164;27.786;2022-12-07T07:21:04;100604.03;;;7.25;100.00
63088;BME280;49173;43.164;27.786;2022-12-07T07:23:30;100608.28;;;7.31;100.00
63088;BME280;49173;43.164;27.786;2022-12-07T07:25:56;100604.50;;;7.36;100.00
63088;BME280;49173;43.164;27.786;2022-12-07T07:28:22;100602.31;;;7.48;100.00
63088;BME280;49173;43.164;27.786;2022-12-07T07:30:48;100605.50;;;7.57;100.00
63088;BME280;49173;43.164;27.786;2022-12-07T07:33:13;100592.59;;;7.68;100.00
63088;BME280;49173;43.164;27.786;2022-12-07T07:35:39;100594.75;;;7.81;100.00
63088;BME280;49173;43.164;27.786;2022-12-07T07:38:05;100598.00;;;7.89;100.00
63088;BME280;49173;43.164;27.786;2022-12-07T07:40:31;100602.28;;;7.93;100.00
63088;BME280;49173;43.164;27.786;2022-12-07T07:42:58;100601.13;;;8.00;100.00
63088;BME280;49173;43.164;27.786;2022-12-07T07:45:25;100602.78;;;8.03;100.00
63088;BME280;49173;43.164;27.786;2022-12-07T07:47:52;100607.88;;;8.09;100.00
63088;BME280;49173;43.164;27.786;2022-12-07T07:50:18;100616.72;;;8.11;100.00
63088;BME280;49173;43.164;27.786;2022-12-07T07:52:44;100614.84;;;8.13;100.00
63088;BME280;49173;43.164;27.786;2022-12-07T07:55:11;100609.38;;;8.16;99.73
63088;BME280;49173;43.164;27.786;2022-12-07T07:57:38;100612.97;;;8.15;99.30
63088;BME280;49173;43.164;27.786;2022-12-07T08:00:09;100608.50;;;8.15;99.16
63088;BME280;49173;43.164;27.786;2022-12-07T08:02:36;100613.66;;;8.20;98.48
63088;BME280;49173;43.164;27.786;2022-12-07T08:05:02;100610.84;;;8.23;98.20
63088;BME280;49173;43.164;27.786;2022-12-07T08:07:28;100617.91;;;8.25;98.05
63088;BME280;49173;43.164;27.786;2022-12-07T08:09:54;100611.41;;;8.31;97.83
63088;BME280;49173;43.164;27.786;2022-12-07T08:12:19;100622.09;;;8.31;98.04
63088;BME280;49173;43.164;27.786;2022-12-07T08:14:45;100613.16;;;8.32;98.31
63088;BME280;49173;43.164;27.786;2022-12-07T08:17:11;100610.53;;;8.31;98.50
63088;BME280;49173;43.164;27.786;2022-12-07T08:19:37;100609.63;;;8.32;98.60
63088;BME280;49173;43.164;27.786;2022-12-07T08:22:03;100618.53;;;8.32;98.91
63088;BME280;49173;43.164;27.786;2022-12-07T08:24:29;100616.63;;;8.34;99.36
63088;BME280;49173;43.164;27.786;2022-12-07T08:26:55;100611.94;;;8.41;99.90
63088;BME280;49173;43.164;27.786;2022-12-07T08:29:21;100615.31;;;8.46;99.91
63088;BME280;49173;43.164;27.786;2022-12-07T08:31:47;100614.97;;;8.53;100.00
63088;BME280;49173;43.164;27.786;2022-12-07T08:34:13;100621.81;;;8.61;100.00
63088;BME280;49173;43.164;27.786;2022-12-07T08:36:39;100617.06;;;8.67;100.00
63088;BME280;49173;43.164;27.786;2022-12-07T08:39:06;100607.88;;;8.73;100.00
63088;BME280;49173;43.164;27.786;2022-12-07T08:41:32;100608.47;;;8.79;100.00
63088;BME280;49173;43.164;27.786;2022-12-07T08:43:58;100603.09;;;8.81;100.00
63088;BME280;49173;43.164;27.786;2022-12-07T08:46:54;100603.81;;;8.85;100.00
63088;BME280;49173;43.164;27.786;2022-12-07T08:49:42;100595.56;;;8.89;99.77
63088;BME280;49173;43.164;27.786;2022-12-07T08:52:09;100596.44;;;8.90;99.43
63088;BME280;49173;43.164;27.786;2022-12-07T08:54:36;100589.88;;;8.97;98.91
63088;BME280;49173;43.164;27.786;2022-12-07T08:57:04;100602.06;;;9.04;97.55
63088;BME280;49173;43.164;27.786;2022-12-07T08:59:33;100581.94;;;9.14;96.94
63088;BME280;49173;43.164;27.786;2022-12-07T09:02:00;100579.00;;;9.20;96.52
63088;BME280;49173;43.164;27.786;2022-12-07T09:04:26;100588.47;;;9.27;95.59
63088;BME280;49173;43.164;27.786;2022-12-07T09:06:54;100578.34;;;9.34;95.56
63088;BME280;49173;43.164;27.786;2022-12-07T09:09:21;100580.75;;;9.40;95.38
63088;BME280;49173;43.164;27.786;2022-12-07T09:11:46;100573.22;;;9.48;94.19
63088;BME280;49173;43.164;27.786;2022-12-07T09:14:13;100565.84;;;9.53;93.19
63088;BME280;49173;43.164;27.786;2022-12-07T09:16:40;100563.75;;;9.60;93.31
63088;BME280;49173;43.164;27.786;2022-12-07T09:19:05;100569.69;;;9.67;92.63
63088;BME280;49173;43.164;27.786;2022-12-07T09:21:32;100559.75;;;9.69;92.56
63088;BME280;49173;43.164;27.786;2022-12-07T09:23:58;100561.19;;;9.76;92.20
63088;BME280;49173;43.164;27.786;2022-12-07T09:26:24;100556.41;;;9.82;91.79
63088;BME280;49173;43.164;27.786;2022-12-07T09:28:50;100552.47;;;9.89;92.07
63088;BME280;49173;43.164;27.786;2022-12-07T09:31:15;100545.00;;;9.96;92.04
63088;BME280;49173;43.164;27.786;2022-12-07T09:33:41;100550.75;;;10.06;91.80
63088;BME280;49173;43.164;27.786;2022-12-07T09:36:07;100541.72;;;10.08;89.97
63088;BME280;49173;43.164;27.786;2022-12-07T09:38:34;100554.00;;;10.12;89.20
63088;BME280;49173;43.164;27.786;2022-12-07T09:41:05;100540.19;;;10.20;89.45
63088;BME280;49173;43.164;27.786;2022-12-07T09:43:35;100539.06;;;10.26;88.48
63088;BME280;49173;43.164;27.786;2022-12-07T09:46:03;100534.47;;;10.28;88.96
63088;BME280;49173;43.164;27.786;2022-12-07T09:48:32;100538.75;;;10.32;89.14
63088;BME280;49173;43.164;27.786;2022-12-07T09:51:00;100522.44;;;10.36;88.07
63088;BME280;49173;43.164;27.786;2022-12-07T09:53:36;100529.44;;;10.39;87.51
63088;BME280;49173;43.164;27.786;2022-12-07T09:56:04;100533.00;;;10.39;87.28
63088;BME280;49173;43.164;27.786;2022-12-07T09:58:31;100528.28;;;10.44;86.80
63088;BME280;49173;43.164;27.786;2022-12-07T10:01:16;100524.72;;;10.44;86.35
63088;BME280;49173;43.164;27.786;2022-12-07T10:03:59;100516.50;;;10.47;86.40
63088;BME280;49173;43.164;27.786;2022-12-07T10:06:26;100515.53;;;10.48;86.21
63088;BME280;49173;43.164;27.786;2022-12-07T10:08:52;100514.75;;;10.46;86.04
63088;BME280;49173;43.164;27.786;2022-12-07T10:11:18;100514.00;;;10.44;86.35
63088;BME280;49173;43.164;27.786;2022-12-07T10:13:49;100512.84;;;10.48;86.15
63088;BME280;49173;43.164;27.786;2022-12-07T10:18:50;100505.28;;;10.56;86.74
63088;BME280;49173;43.164;27.786;2022-12-07T10:21:21;100502.59;;;10.56;85.90
63088;BME280;49173;43.164;27.786;2022-12-07T10:26:41;100494.94;;;10.66;85.76
63088;BME280;49173;43.164;27.786;2022-12-07T10:32:06;100486.78;;;10.67;85.30
63088;BME280;49173;43.164;27.786;2022-12-07T10:34:35;100491.31;;;10.67;85.46
63088;BME280;49173;43.164;27.786;2022-12-07T10:39:46;100484.88;;;10.69;85.48
63088;BME280;49173;43.164;27.786;2022-12-07T10:42:22;100474.59;;;10.78;85.83
63088;BME280;49173;43.164;27.786;2022-12-07T10:44:49;100476.28;;;10.80;85.73
63088;BME280;49173;43.164;27.786;2022-12-07T10:47:48;100486.16;;;10.80;84.49
63088;BME280;49173;43.164;27.786;2022-12-07T10:53:28;100478.69;;;10.85;83.99
63088;BME280;49173;43.164;27.786;2022-12-07T10:59:20;100468.47;;;10.91;84.58
63088;BME280;49173;43.164;27.786;2022-12-07T11:07:52;100451.25;;;10.95;82.22
63088;BME280;49173;43.164;27.786;2022-12-07T11:15:55;100449.25;;;10.99;82.16
63088;BME280;49173;43.164;27.786;2022-12-07T11:18:34;100455.44;;;11.01;82.10
63088;BME280;49173;43.164;27.786;2022-12-07T11:21:30;100442.69;;;11.05;81.79
63088;BME280;49173;43.164;27.786;2022-12-07T11:24:08;100435.34;;;11.08;81.41
63088;BME280;49173;43.164;27.786;2022-12-07T11:26:46;100433.44;;;11.10;80.47
63088;BME280;49173;43.164;27.786;2022-12-07T11:29:36;100431.69;;;11.09;80.60
63088;BME280;49173;43.164;27.786;2022-12-07T11:38:16;100429.69;;;11.13;80.20
63088;BME280;49173;43.164;27.786;2022-12-07T11:40:46;100429.69;;;11.13;80.14
63088;BME280;49173;43.164;27.786;2022-12-07T11:43:26;100419.81;;;11.13;80.25
63088;BME280;49173;43.164;27.786;2022-12-07T11:46:00;100425.03;;;11.16;79.86
63088;BME280;49173;43.164;27.786;2022-12-07T11:48:33;100425.88;;;11.17;79.58
63088;BME280;49173;43.164;27.786;2022-12-07T11:51:02;100418.69;;;11.17;80.03
63088;BME280;49173;43.164;27.786;2022-12-07T11:53:36;100426.56;;;11.20;79.42
63088;BME280;49173;43.164;27.786;2022-12-07T11:56:13;100422.16;;;11.19;79.60
63088;BME280;49173;43.164;27.786;2022-12-07T12:01:39;100421.38;;;11.17;79.32
63088;BME280;49173;43.164;27.786;2022-12-07T12:06:40;100411.59;;;11.16;79.49
63088;BME280;49173;43.164;27.786;2022-12-07T12:09:19;100414.09;;;11.19;79.18
63088;BME280;49173;43.164;27.786;2022-12-07T12:11:53;100413.22;;;11.19;79.73
63088;BME280;49173;43.164;27.786;2022-12-07T12:14:46;100414.03;;;11.21;79.67
63088;BME280;49173;43.164;27.786;2022-12-07T12:20:01;100406.56;;;11.26;79.86
63088;BME280;49173;43.164;27.786;2022-12-07T12:22:58;100405.44;;;11.30;80.12
63088;BME280;49173;43.164;27.786;2022-12-07T12:25:34;100401.78;;;11.31;79.36
63088;BME280;49173;43.164;27.786;2022-12-07T12:28:02;100402.66;;;11.32;79.11
63088;BME280;49173;43.164;27.786;2022-12-07T12:35:35;100392.25;;;11.25;78.80
63088;BME280;49173;43.164;27.786;2022-12-07T12:38:27;100396.84;;;11.23;77.72
63088;BME280;49173;43.164;27.786;2022-12-07T12:40:55;100389.75;;;11.22;77.85
63088;BME280;49173;43.164;27.786;2022-12-07T12:51:46;100387.06;;;11.22;78.10
63088;BME280;49173;43.164;27.786;2022-12-07T12:54:19;100383.59;;;11.20;78.32
63088;BME280;49173;43.164;27.786;2022-12-07T12:59:29;100388.97;;;11.20;78.35
63088;BME280;49173;43.164;27.786;2022-12-07T13:04:51;100385.50;;;11.18;78.64
63088;BME280;49173;43.164;27.786;2022-12-07T13:15:42;100375.03;;;11.14;78.48
63088;BME280;49173;43.164;27.786;2022-12-07T13:29:15;100374.97;;;10.99;78.87
63088;BME280;49173;43.164;27.786;2022-12-07T13:31:45;100369.66;;;10.98;78.82
63088;BME280;49173;43.164;27.786;2022-12-07T13:34:40;100368.88;;;10.96;78.81
63088;BME280;49173;43.164;27.786;2022-12-07T13:37:15;100376.06;;;10.95;78.85
63088;BME280;49173;43.164;27.786;2022-12-07T13:39:47;100374.34;;;10.94;78.71
63088;BME280;49173;43.164;27.786;2022-12-07T13:42:34;100372.69;;;10.92;78.49
63088;BME280;49173;43.164;27.786;2022-12-07T13:45:24;100363.69;;;10.93;78.56
63088;BME280;49173;43.164;27.786;2022-12-07T13:48:19;100365.75;;;10.88;78.87
63088;BME280;49173;43.164;27.786;2022-12-07T13:50:55;100372.16;;;10.85;78.95
63088;BME280;49173;43.164;27.786;2022-12-07T13:53:21;100376.84;;;10.82;78.94
63088;BME280;49173;43.164;27.786;2022-12-07T13:55:48;100383.41;;;10.76;79.25
63088;BME280;49173;43.164;27.786;2022-12-07T13:58:14;100373.97;;;10.69;79.36
63088;BME280;49173;43.164;27.786;2022-12-07T14:00:41;100375.97;;;10.65;79.44
63088;BME280;49173;43.164;27.786;2022-12-07T14:05:41;100378.13;;;10.59;79.69
63088;BME280;49173;43.164;27.786;2022-12-07T14:13:32;100381.47;;;10.47;79.87
63088;BME280;49173;43.164;27.786;2022-12-07T14:16:28;100387.06;;;10.42;80.31
63088;BME280;49173;43.164;27.786;2022-12-07T14:18:56;100380.25;;;10.36;80.28
63088;BME280;49173;43.164;27.786;2022-12-07T14:21:25;100379.53;;;10.33;80.39
63088;BME280;49173;43.164;27.786;2022-12-07T14:24:16;100379.72;;;10.30;80.37
63088;BME280;49173;43.164;27.786;2022-12-07T14:26:49;100382.53;;;10.27;80.33
63088;BME280;49173;43.164;27.786;2022-12-07T14:31:51;100380.09;;;10.22;80.72
63088;BME280;49173;43.164;27.786;2022-12-07T14:34:16;100378.59;;;10.16;80.82
63088;BME280;49173;43.164;27.786;2022-12-07T14:36:42;100375.28;;;10.11;80.97
63088;BME280;49173;43.164;27.786;2022-12-07T14:39:08;100371.81;;;10.09;81.26
63088;BME280;49173;43.164;27.786;2022-12-07T14:41:34;100371.97;;;10.06;81.18
63088;BME280;49173;43.164;27.786;2022-12-07T14:44:24;100373.09;;;10.02;81.54
63088;BME280;49173;43.164;27.786;2022-12-07T14:46:50;100369.69;;;9.99;81.74
63088;BME280;49173;43.164;27.786;2022-12-07T14:49:17;100369.00;;;9.95;81.98
63088;BME280;49173;43.164;27.786;2022-12-07T14:51:45;100365.59;;;9.91;82.14
63088;BME280;49173;43.164;27.786;2022-12-07T14:54:18;100372.00;;;9.89;82.65
63088;BME280;49173;43.164;27.786;2022-12-07T14:56:45;100378.44;;;9.85;82.61
63088;BME280;49173;43.164;27.786;2022-12-07T14:59:15;100386.56;;;9.83;82.86
63088;BME280;49173;43.164;27.786;2022-12-07T15:01:41;100387.63;;;9.81;83.01